createdAt,value
2022-10-05T00:02:25.723Z,6.03
2022-10-05T00:04:59.971Z,5.72
2022-10-05T00:07:54.531Z,5.80
2022-10-05T00:10:22.414Z,6.60
2022-10-05T00:12:49.825Z,6.15
2022-10-05T00:15:22.008Z,5.85
2022-10-05T00:17:52.915Z,6.00
2022-10-05T00:20:37.122Z,5.60
2022-10-05T00:23:07.979Z,6.05
2022-10-05T00:25:35.322Z,5.88
2022-10-05T00:31:34.375Z,6.20
2022-10-05T00:34:03.253Z,5.80
2022-10-05T00:36:41.238Z,5.63
2022-10-05T00:39:09.010Z,5.75
2022-10-05T00:41:43.380Z,5.05
2022-10-05T00:44:41.772Z,5.82
2022-10-05T00:55:22.981Z,5.35
2022-10-05T00:58:45.913Z,6.00
2022-10-05T01:31:36.610Z,6.40
2022-10-05T01:35:24.717Z,6.43
2022-10-05T01:40:12.903Z,6.28
2022-10-05T01:50:00.888Z,6.50
2022-10-05T01:52:28.889Z,6.38
2022-10-05T01:55:10.636Z,6.40
2022-10-05T01:58:16.524Z,6.60
2022-10-05T02:01:42.711Z,5.82
2022-10-05T02:04:59.897Z,6.60
2022-10-05T02:14:56.541Z,6.20
2022-10-05T02:24:00.575Z,7.03
2022-10-05T02:26:32.719Z,6.55
2022-10-05T02:29:09.787Z,6.65
2022-10-05T02:31:47.963Z,6.28
2022-10-05T02:37:54.694Z,7.15
2022-10-05T02:47:34.531Z,6.65
2022-10-05T02:53:24.748Z,6.78
2022-10-05T02:56:56.340Z,6.28
2022-10-05T03:00:29.226Z,5.82
2022-10-05T03:09:01.644Z,6.75
2022-10-05T03:20:13.191Z,7.28
2022-10-05T03:47:44.273Z,6.95
2022-10-05T03:50:57.546Z,6.57
2022-10-05T03:57:12.973Z,7.68
2022-10-05T04:00:05.242Z,7.03
2022-10-05T04:11:05.315Z,7.22
2022-10-05T04:16:47.703Z,7.43
2022-10-05T04:19:25.327Z,7.75
2022-10-05T04:22:05.958Z,7.15
2022-10-05T04:29:43.647Z,7.50
2022-10-05T04:32:19.686Z,8.32
2022-10-05T04:41:49.965Z,7.82
2022-10-05T04:45:13.418Z,7.32
2022-10-05T04:48:35.572Z,7.57
2022-10-05T04:51:23.426Z,6.93
2022-10-05T04:54:33.071Z,7.38
2022-10-05T05:13:07.438Z,5.97
2022-10-05T05:16:17.961Z,6.80
2022-10-05T05:19:06.223Z,7.28
2022-10-05T05:22:22.925Z,6.38
2022-10-05T05:36:55.364Z,7.03
2022-10-05T05:39:33.184Z,6.80
2022-10-05T05:42:30.254Z,6.20
2022-10-05T05:46:58.370Z,7.53
2022-10-05T05:49:36.974Z,7.28
2022-10-05T06:08:26.949Z,7.38
2022-10-05T06:18:00.606Z,7.82
2022-10-05T06:20:44.684Z,7.20
2022-10-05T06:29:22.151Z,7.07
2022-10-05T06:35:12.191Z,7.13
2022-10-05T06:37:57.764Z,7.15
2022-10-05T06:41:10.254Z,7.40
2022-10-05T06:44:30.651Z,6.93
2022-10-05T07:00:25.366Z,6.80
2022-10-05T07:03:23.401Z,6.82
2022-10-05T07:06:02.547Z,6.95
2022-10-05T07:08:56.601Z,6.78
2022-10-05T07:11:32.547Z,6.97
2022-10-05T07:14:23.329Z,6.47
2022-10-05T07:17:11.232Z,7.28
2022-10-05T07:20:01.552Z,7.15
2022-10-05T07:22:33.481Z,6.32
2022-10-05T07:25:15.439Z,7.38
2022-10-05T07:27:55.132Z,6.43
2022-10-05T07:30:22.600Z,6.10
2022-10-05T07:33:06.254Z,7.07
2022-10-05T07:36:21.988Z,6.38
2022-10-05T07:39:01.182Z,6.85
2022-10-05T07:41:48.314Z,6.43
2022-10-05T07:44:25.909Z,6.45
2022-10-05T07:47:15.515Z,6.70
2022-10-05T07:50:11.322Z,6.28
2022-10-05T07:52:49.763Z,6.18
2022-10-05T07:55:22.580Z,7.45
2022-10-05T07:58:17.626Z,7.30
2022-10-05T08:00:58.866Z,7.03
2022-10-05T08:04:17.179Z,7.68
2022-10-05T08:06:47.968Z,7.95
2022-10-05T08:09:37.015Z,7.40
2022-10-05T08:12:41.490Z,7.22
2022-10-05T08:15:16.851Z,6.65
2022-10-05T08:18:03.040Z,7.75
2022-10-05T08:24:43.933Z,7.90
2022-10-05T08:27:23.497Z,7.35
2022-10-05T08:30:01.674Z,8.15
2022-10-05T08:32:43.427Z,8.27
2022-10-05T08:35:39.876Z,8.23
2022-10-05T08:38:18.135Z,7.60
2022-10-05T08:40:59.847Z,7.88
2022-10-05T08:44:04.702Z,8.00
2022-10-05T08:47:09.215Z,8.15
2022-10-05T08:50:13.559Z,7.57
2022-10-05T08:53:01.903Z,7.55
2022-10-05T08:55:40.675Z,7.70
2022-10-05T08:58:27.096Z,6.68
2022-10-05T09:01:04.645Z,7.00
2022-10-05T09:03:34.947Z,7.35
2022-10-05T09:06:33.580Z,6.90
2022-10-05T09:09:09.351Z,9.10
2022-10-05T09:11:39.061Z,8.23
2022-10-05T09:14:39.622Z,6.57
2022-10-05T09:17:37.080Z,6.90
2022-10-05T09:20:37.858Z,7.15
2022-10-05T09:23:40.658Z,5.85
2022-10-05T09:26:27.426Z,6.43
2022-10-05T09:29:28.020Z,6.57
2022-10-05T09:32:06.212Z,6.20
2022-10-05T09:34:59.719Z,6.10
2022-10-05T09:38:08.544Z,5.25
2022-10-05T09:41:34.536Z,5.70
2022-10-05T09:44:31.846Z,5.18
2022-10-05T09:47:29.785Z,5.53
2022-10-05T09:50:32.780Z,4.85
2022-10-05T09:53:13.237Z,4.97
2022-10-05T09:59:13.294Z,5.38
2022-10-05T10:02:07.858Z,5.00
2022-10-05T10:04:37.468Z,4.63
2022-10-05T10:07:21.163Z,3.92
2022-10-05T10:10:16.160Z,4.13
2022-10-05T10:12:42.830Z,4.20
2022-10-05T10:15:24.746Z,3.75
2022-10-05T10:18:19.530Z,3.88
2022-10-05T10:21:19.483Z,3.88
2022-10-05T10:24:00.371Z,3.78
2022-10-05T10:27:07.710Z,3.67
2022-10-05T10:29:55.307Z,4.57
2022-10-05T10:32:53.220Z,3.42
2022-10-05T10:35:34.301Z,3.88
2022-10-05T10:38:23.769Z,5.25
2022-10-05T10:41:29.075Z,2.95
2022-10-05T10:44:24.112Z,3.05
2022-10-05T10:47:38.697Z,3.03
2022-10-05T10:50:42.663Z,2.70
2022-10-05T10:53:31.333Z,2.95
2022-10-05T10:56:22.645Z,3.30
2022-10-05T10:58:59.079Z,3.00
2022-10-05T11:01:36.908Z,2.50
2022-10-05T11:04:16.034Z,3.00
2022-10-05T11:06:46.372Z,3.30
2022-10-05T11:09:28.913Z,2.85
2022-10-05T11:12:01.767Z,2.80
2022-10-05T11:14:54.617Z,2.55
2022-10-05T11:17:52.944Z,2.90
2022-10-05T11:20:47.100Z,2.60
2022-10-05T11:23:29.731Z,2.13
2022-10-05T11:26:19.159Z,1.83
2022-10-05T11:29:11.577Z,1.55
2022-10-05T11:32:10.119Z,1.60
2022-10-05T11:34:42.934Z,1.50
2022-10-05T11:37:32.149Z,1.40
2022-10-05T11:40:28.761Z,1.95
2022-10-05T11:43:49.830Z,1.70
2022-10-05T11:46:18.069Z,1.60
2022-10-05T11:49:23.483Z,1.50
2022-10-05T11:52:08.942Z,1.48
2022-10-05T11:55:11.377Z,1.50
2022-10-05T11:57:56.358Z,1.40
2022-10-05T12:00:32.770Z,1.25
2022-10-05T12:03:15.468Z,1.40
2022-10-05T12:06:21.958Z,2.00
2022-10-05T12:09:06.970Z,1.38
2022-10-05T12:11:42.958Z,1.30
2022-10-05T12:14:44.556Z,1.13
2022-10-05T12:17:32.353Z,1.10
2022-10-05T12:20:06.920Z,1.20
2022-10-05T12:22:50.721Z,1.50
2022-10-05T12:25:38.646Z,1.48
2022-10-05T12:28:12.159Z,1.65
2022-10-05T12:30:58.131Z,1.48
2022-10-05T12:33:28.375Z,1.48
2022-10-05T12:36:07.957Z,1.25
2022-10-05T12:38:57.876Z,1.30
2022-10-05T12:42:04.138Z,1.30
2022-10-05T12:44:52.154Z,1.30
2022-10-05T12:47:49.230Z,1.25
2022-10-05T12:50:24.243Z,1.58
2022-10-05T12:53:00.704Z,1.20
2022-10-05T12:55:48.932Z,1.25
2022-10-05T12:58:48.169Z,1.55
2022-10-05T13:01:38.279Z,1.40
2022-10-05T13:04:20.088Z,1.30
2022-10-05T13:06:52.783Z,1.40
2022-10-05T13:09:33.429Z,1.10
2022-10-05T13:12:28.564Z,1.38
2022-10-05T13:15:10.611Z,1.20
2022-10-05T13:18:18.781Z,1.20
2022-10-05T13:20:59.264Z,1.00
2022-10-05T13:23:44.834Z,1.10
2022-10-05T13:26:17.579Z,1.13
2022-10-05T13:28:52.818Z,1.30
2022-10-05T13:31:26.852Z,2.00
2022-10-05T13:34:18.334Z,1.17
2022-10-05T13:37:05.848Z,1.20
2022-10-05T13:39:42.114Z,1.50
2022-10-05T13:42:20.196Z,1.25
2022-10-05T13:45:28.942Z,1.35
2022-10-05T13:48:16.389Z,1.20
2022-10-05T13:51:10.974Z,1.27
2022-10-05T13:54:04.750Z,1.30
2022-10-05T13:56:42.592Z,1.35
2022-10-05T13:59:35.314Z,1.40
2022-10-05T14:02:08.581Z,1.30
2022-10-05T14:04:44.384Z,1.30
2022-10-05T14:07:21.710Z,1.33
2022-10-05T14:09:49.934Z,2.15
2022-10-05T14:12:22.365Z,2.95
2022-10-05T14:14:57.874Z,1.58
2022-10-05T14:17:33.490Z,1.40
2022-10-05T14:20:03.360Z,1.20
2022-10-05T14:22:30.258Z,1.30
2022-10-05T14:25:13.959Z,1.33
2022-10-05T14:28:24.100Z,1.40
2022-10-05T14:31:01.200Z,1.25
2022-10-05T14:33:33.854Z,1.30
2022-10-05T14:36:03.553Z,1.45
2022-10-05T14:38:49.979Z,1.30
2022-10-05T14:41:25.163Z,1.40
2022-10-05T14:50:16.088Z,1.30
2022-10-05T14:53:00.345Z,1.23
2022-10-05T14:55:37.272Z,1.25
2022-10-05T14:58:32.069Z,1.40
2022-10-05T15:01:19.688Z,1.40
2022-10-05T15:04:21.174Z,1.35
2022-10-05T15:07:04.197Z,1.27
2022-10-05T15:09:54.426Z,1.50
2022-10-05T15:12:38.285Z,1.25
2022-10-05T15:15:14.810Z,1.20
2022-10-05T15:17:59.398Z,1.30
2022-10-05T15:20:34.447Z,1.30
2022-10-05T15:26:00.811Z,1.30
2022-10-05T15:28:34.088Z,1.40
2022-10-05T15:31:09.451Z,1.52
2022-10-05T15:33:40.717Z,1.42
2022-10-05T15:36:51.970Z,1.52
2022-10-05T15:39:26.978Z,1.35
2022-10-05T15:44:48.977Z,1.13
2022-10-05T15:47:47.250Z,1.40
2022-10-05T15:50:26.503Z,1.30
2022-10-05T15:53:02.437Z,1.45
2022-10-05T15:55:55.575Z,1.50
2022-10-05T15:58:50.226Z,1.75
2022-10-05T16:01:32.084Z,1.40
2022-10-05T16:04:23.463Z,1.80
2022-10-05T16:07:14.698Z,1.88
2022-10-05T16:09:57.890Z,1.65
2022-10-05T16:12:46.699Z,1.90
2022-10-05T16:15:21.968Z,1.70
2022-10-05T16:20:36.679Z,2.00
2022-10-05T16:23:09.170Z,1.98
2022-10-05T16:25:58.367Z,1.80
2022-10-05T16:28:50.610Z,1.88
2022-10-05T16:31:38.187Z,2.15
2022-10-05T16:34:12.552Z,2.13
2022-10-05T16:36:54.366Z,2.10
2022-10-05T16:39:56.609Z,2.00
2022-10-05T16:42:25.724Z,2.05
2022-10-05T16:45:26.252Z,2.35
2022-10-05T16:48:19.679Z,2.20
2022-10-05T16:51:07.796Z,2.10
2022-10-05T16:53:41.580Z,2.35
2022-10-05T16:56:17.344Z,1.77
2022-10-05T16:58:52.946Z,1.85
2022-10-05T17:02:07.906Z,1.73
2022-10-05T17:04:41.082Z,1.70
2022-10-05T17:07:20.334Z,1.85
2022-10-05T17:10:14.211Z,1.60
2022-10-05T17:12:46.865Z,1.45
2022-10-05T17:15:31.555Z,1.33
2022-10-05T17:18:23.797Z,1.85
2022-10-05T17:20:56.722Z,1.70
2022-10-05T17:23:48.590Z,1.60
2022-10-05T17:26:45.046Z,1.60
2022-10-05T17:29:33.779Z,1.77
2022-10-05T17:32:10.677Z,1.58
2022-10-05T17:35:04.133Z,1.88
2022-10-05T17:37:38.110Z,3.13
2022-10-05T17:40:32.056Z,2.13
2022-10-05T17:43:01.322Z,2.03
2022-10-05T17:45:34.164Z,1.83
2022-10-05T17:48:04.072Z,1.90
2022-10-05T17:50:58.437Z,1.88
2022-10-05T17:54:05.754Z,4.00
2022-10-05T17:56:53.614Z,2.28
2022-10-05T17:59:55.634Z,2.03
2022-10-05T18:02:26.710Z,2.45
2022-10-05T18:05:16.189Z,2.72
2022-10-05T18:07:48.099Z,2.40
2022-10-05T18:10:29.069Z,2.80
2022-10-05T18:12:58.872Z,2.63
2022-10-05T18:15:25.576Z,2.72
2022-10-05T18:18:20.484Z,2.72
2022-10-05T18:21:13.638Z,2.53
2022-10-05T18:23:59.247Z,2.78
2022-10-05T18:26:41.630Z,2.90
2022-10-05T18:29:40.313Z,2.95
2022-10-05T18:32:28.052Z,3.03
2022-10-05T18:35:13.115Z,2.90
2022-10-05T18:38:04.220Z,2.42
2022-10-05T18:40:48.410Z,2.55
2022-10-05T18:43:52.817Z,2.85
2022-10-05T18:46:45.515Z,2.40
2022-10-05T18:49:27.525Z,2.20
2022-10-05T18:52:05.678Z,2.40
2022-10-05T18:55:10.053Z,2.58
2022-10-05T18:58:11.213Z,2.75
2022-10-05T19:00:43.809Z,4.43
2022-10-05T19:03:28.104Z,2.70
2022-10-05T19:05:59.839Z,2.60
2022-10-05T19:08:32.839Z,2.55
2022-10-05T19:11:23.185Z,2.45
2022-10-05T19:14:24.749Z,2.50
2022-10-05T19:17:14.312Z,2.47
2022-10-05T19:19:43.987Z,2.55
2022-10-05T19:22:34.472Z,2.40
2022-10-05T19:25:09.952Z,2.55
2022-10-05T19:27:45.737Z,2.25
2022-10-05T19:30:23.570Z,2.88
2022-10-05T19:33:09.028Z,2.33
2022-10-05T19:36:10.700Z,2.58
2022-10-05T19:38:55.561Z,2.60
2022-10-05T19:41:29.358Z,2.90
2022-10-05T19:44:02.295Z,2.58
2022-10-05T19:46:40.609Z,2.40
2022-10-05T19:49:10.762Z,2.33
2022-10-05T19:51:49.809Z,2.30
2022-10-05T19:54:31.097Z,2.33
2022-10-05T19:57:05.821Z,2.10
2022-10-05T19:59:37.223Z,2.30
2022-10-05T20:02:04.575Z,2.42
2022-10-05T20:04:43.084Z,2.13
2022-10-05T20:07:23.295Z,2.95
2022-10-05T20:09:50.250Z,2.22
2022-10-05T20:12:21.372Z,1.83
2022-10-05T20:15:30.112Z,2.10
2022-10-05T20:18:32.517Z,1.85
2022-10-05T20:21:00.652Z,2.05
2022-10-05T20:23:30.385Z,2.00
2022-10-05T20:26:20.133Z,2.10
2022-10-05T20:28:50.357Z,1.90
2022-10-05T20:31:20.033Z,1.80
2022-10-05T20:33:49.065Z,1.85
2022-10-05T20:36:15.886Z,1.70
2022-10-05T20:38:42.979Z,1.65
2022-10-05T20:41:09.819Z,2.00
2022-10-05T20:43:40.762Z,1.95
2022-10-05T20:46:07.688Z,1.90
2022-10-05T20:48:37.320Z,5.45
2022-10-05T20:51:04.340Z,2.00
2022-10-05T20:53:31.140Z,2.05
2022-10-05T20:56:05.602Z,2.08
2022-10-05T20:58:32.282Z,1.75
2022-10-05T21:01:18.436Z,1.88
2022-10-05T21:03:49.613Z,1.85
2022-10-05T21:06:26.406Z,1.73
2022-10-05T21:08:53.086Z,1.50
2022-10-05T21:11:20.550Z,1.85
2022-10-05T21:13:47.422Z,1.70
2022-10-05T21:16:18.241Z,2.05
2022-10-05T21:18:47.848Z,1.48
2022-10-05T21:21:17.205Z,1.73
2022-10-05T21:23:45.223Z,1.40
2022-10-05T21:26:12.669Z,2.00
2022-10-05T21:28:40.374Z,1.98
2022-10-05T21:31:10.026Z,2.22
2022-10-05T21:33:36.888Z,1.95
2022-10-05T21:36:03.940Z,1.70
2022-10-05T21:38:32.937Z,2.05
2022-10-05T21:40:59.794Z,1.95
2022-10-05T21:43:26.981Z,2.08
2022-10-05T21:45:55.470Z,1.80
2022-10-05T21:48:23.296Z,2.00
2022-10-05T21:50:52.930Z,2.22
2022-10-05T21:53:24.507Z,2.05
2022-10-05T21:55:51.924Z,2.20
2022-10-05T21:58:20.581Z,2.05
2022-10-05T22:00:47.368Z,2.42
2022-10-05T22:03:16.723Z,2.17
2022-10-05T22:05:43.593Z,2.58
2022-10-05T22:08:31.405Z,2.65
2022-10-05T22:11:00.715Z,2.42
2022-10-05T22:13:39.349Z,2.03
2022-10-05T22:16:06.244Z,2.42
2022-10-05T22:18:33.002Z,2.60
2022-10-05T22:21:02.173Z,2.25
2022-10-05T22:23:28.885Z,2.00
2022-10-05T22:25:57.951Z,1.55
2022-10-05T22:28:30.820Z,1.00
2022-10-05T22:30:59.765Z,1.13
2022-10-05T22:33:26.474Z,0.80
2022-10-05T22:35:54.342Z,1.08
2022-10-05T22:38:21.119Z,0.95
2022-10-05T22:40:47.787Z,1.20
2022-10-05T22:43:14.438Z,1.23
2022-10-05T22:45:43.392Z,1.17
2022-10-05T22:48:10.212Z,1.20
2022-10-05T22:50:39.464Z,1.10
2022-10-05T22:53:06.332Z,1.10
2022-10-05T22:55:35.378Z,1.23
2022-10-05T22:58:02.084Z,1.23
2022-10-05T23:00:53.265Z,1.30
2022-10-05T23:03:16.098Z,1.20
2022-10-05T23:05:45.236Z,1.13
2022-10-05T23:08:11.998Z,1.10
2022-10-05T23:10:38.719Z,1.08
2022-10-05T23:13:06.259Z,1.20
2022-10-05T23:15:34.264Z,1.40
2022-10-05T23:18:01.011Z,1.50
2022-10-05T23:20:27.727Z,1.52
2022-10-05T23:22:58.688Z,1.50
2022-10-05T23:25:25.637Z,1.27
2022-10-05T23:27:52.298Z,1.02
2022-10-05T23:30:19.123Z,1.40
2022-10-05T23:32:45.846Z,1.40
2022-10-05T23:35:13.715Z,1.10
2022-10-05T23:37:42.448Z,0.90
2022-10-05T23:40:14.136Z,0.90
2022-10-05T23:42:43.390Z,0.68
2022-10-05T23:45:11.444Z,1.35
2022-10-05T23:47:38.930Z,1.00
2022-10-05T23:50:07.011Z,1.20
2022-10-05T23:52:37.712Z,1.20
2022-10-05T23:55:05.578Z,0.93
2022-10-05T23:57:32.628Z,1.25
